Time;durP1;ratioP1;P1;durP2;ratioP2;P2;SDS_P1;SDS_P2;PMS_P1;PMS_P2;Temp;Humidity;BMP_temperature;BMP_pressure;BME280_temperature;BME280_humidity;BME280_pressure;Samples;Min_cycle;Max_cycle;Signal;HPM_P1;HPM_P2
2024/04/06 00:01:10;;;;;;;6.85;1.52;;;14.60;99.90;;;;;;5074066;28;20531;-62
2024/04/06 00:03:36;;;;;;;4.03;1.10;;;14.60;99.90;;;;;;5074096;28;20036;-63
2024/04/06 00:06:02;;;;;;;6.65;1.60;;;14.60;99.90;;;;;;5073767;28;20424;-69
2024/04/06 00:08:28;;;;;;;5.25;1.70;;;14.60;99.90;;;;;;5066514;28;20130;-62
2024/04/06 00:10:54;;;;;;;3.83;1.25;;;14.60;99.90;;;;;;5054026;28;20120;-61
2024/04/06 00:13:20;;;;;;;5.47;1.33;;;14.60;99.90;;;;;;5054008;28;20449;-63
2024/04/06 00:15:46;;;;;;;7.72;1.60;;;14.50;99.90;;;;;;5053369;28;20128;-63
2024/04/06 00:18:12;;;;;;;4.43;1.20;;;14.50;99.90;;;;;;5053741;28;20053;-63
2024/04/06 00:20:38;;;;;;;5.15;1.50;;;14.50;99.90;;;;;;5053865;28;20048;-66
2024/04/06 00:23:04;;;;;;;5.65;1.63;;;14.50;99.90;;;;;;5053845;28;20041;-66
2024/04/06 00:25:30;;;;;;;5.70;1.33;;;14.50;99.90;;;;;;5053379;28;20134;-69
2024/04/06 00:27:55;;;;;;;5.88;1.20;;;14.50;99.90;;;;;;5053740;28;20071;-69
2024/04/06 00:30:21;;;;;;;5.32;1.60;;;14.60;99.90;;;;;;5053419;28;20029;-69
2024/04/06 00:32:47;;;;;;;3.60;1.55;;;14.60;99.90;;;;;;5036825;28;20033;-69
2024/04/06 00:35:13;;;;;;;5.55;1.20;;;14.60;99.90;;;;;;5053344;28;20463;-65
2024/04/06 00:37:39;;;;;;;4.63;1.20;;;14.70;99.90;;;;;;5053278;28;20076;-62
2024/04/06 00:40:05;;;;;;;5.78;2.13;;;14.70;99.90;;;;;;5053251;28;20050;-61
2024/04/06 00:42:31;;;;;;;5.97;1.50;;;14.70;99.90;;;;;;5053245;28;20065;-61
2024/04/06 00:44:57;;;;;;;4.43;1.20;;;14.80;99.90;;;;;;5036358;28;20040;-61
2024/04/06 00:47:22;;;;;;;3.50;1.20;;;14.80;99.90;;;;;;5053397;28;20079;-62
2024/04/06 00:49:48;;;;;;;5.07;1.35;;;14.90;99.90;;;;;;5052991;28;20041;-63
2024/04/06 00:52:14;;;;;;;4.10;1.67;;;14.90;99.90;;;;;;5036313;28;20052;-63
2024/04/06 00:54:40;;;;;;;7.53;1.45;;;14.90;99.90;;;;;;5053144;28;20050;-63
2024/04/06 00:57:07;;;;;;;3.33;1.40;;;14.90;99.90;;;;;;5052901;28;20135;-63
2024/04/06 00:59:32;;;;;;;4.25;1.60;;;14.90;99.90;;;;;;5053440;28;20041;-63
2024/04/06 01:01:58;;;;;;;4.07;1.42;;;14.90;99.90;;;;;;5053258;28;20075;-62
2024/04/06 01:04:24;;;;;;;5.93;1.35;;;14.90;99.90;;;;;;5052840;28;20094;-68
2024/04/06 01:06:50;;;;;;;5.43;1.50;;;14.90;99.90;;;;;;5052631;28;20037;-67
2024/04/06 01:09:16;;;;;;;5.85;1.55;;;14.90;99.90;;;;;;5052396;28;20041;-67
2024/04/06 01:11:42;;;;;;;3.83;1.30;;;14.90;99.90;;;;;;5052202;28;20049;-67
2024/04/06 01:14:07;;;;;;;5.97;1.70;;;14.90;99.90;;;;;;5052804;28;20064;-66
2024/04/06 01:16:33;;;;;;;5.40;1.50;;;14.80;99.90;;;;;;5052273;28;20123;-67
2024/04/06 01:18:59;;;;;;;4.13;1.27;;;14.80;99.90;;;;;;5052925;28;20119;-67
2024/04/06 01:21:26;;;;;;;4.72;1.52;;;14.80;99.90;;;;;;5035988;28;20120;-67
2024/04/06 01:23:52;;;;;;;7.88;1.80;;;14.80;99.90;;;;;;5052533;28;20033;-69
2024/04/06 01:26:17;;;;;;;4.50;1.33;;;14.80;99.90;;;;;;5052380;28;20120;-69
2024/04/06 01:28:43;;;;;;;8.20;2.38;;;14.80;99.90;;;;;;5052447;28;20072;-69
2024/04/06 01:31:09;;;;;;;4.82;1.50;;;14.80;99.90;;;;;;5036024;28;20509;-69
2024/04/06 01:33:35;;;;;;;8.60;1.65;;;14.80;99.90;;;;;;5052285;28;20043;-69
2024/04/06 01:36:01;;;;;;;4.97;1.60;;;14.80;99.90;;;;;;5051830;28;20517;-69
2024/04/06 01:38:27;;;;;;;5.90;1.60;;;14.80;99.90;;;;;;5052069;28;20037;-69
2024/04/06 01:40:52;;;;;;;5.43;1.83;;;14.80;99.90;;;;;;5052292;28;20049;-69
2024/04/06 01:43:18;;;;;;;6.57;2.15;;;14.90;99.90;;;;;;5051958;28;20122;-69
2024/04/06 01:45:44;;;;;;;6.50;1.67;;;14.90;99.90;;;;;;5051796;28;20097;-70
2024/04/06 01:48:10;;;;;;;5.15;1.48;;;14.90;99.90;;;;;;5051970;28;20576;-68
2024/04/06 01:50:36;;;;;;;3.97;1.67;;;14.90;99.90;;;;;;5051941;28;20041;-69
2024/04/06 01:53:02;;;;;;;8.82;2.38;;;14.90;99.90;;;;;;5052267;28;20500;-69
2024/04/06 01:55:27;;;;;;;5.68;1.80;;;14.90;99.90;;;;;;5051613;28;20041;-68
2024/04/06 01:57:54;;;;;;;5.35;1.83;;;14.90;99.90;;;;;;5035548;28;20036;-70
2024/04/06 02:00:20;;;;;;;5.93;1.80;;;14.90;99.90;;;;;;5052398;28;20128;-70
2024/04/06 02:02:46;;;;;;;7.82;1.52;;;14.90;99.90;;;;;;5035860;28;20065;-70
2024/04/06 02:05:12;;;;;;;4.93;1.50;;;14.90;99.90;;;;;;5051680;28;20076;-70
2024/04/06 02:07:38;;;;;;;10.30;2.08;;;14.90;99.90;;;;;;5051799;28;20033;-70
2024/04/06 02:10:03;;;;;;;4.53;1.70;;;15.00;99.90;;;;;;5051618;28;20040;-66
2024/04/06 02:12:29;;;;;;;6.30;1.73;;;15.00;99.90;;;;;;5035262;28;20066;-67
2024/04/06 02:14:55;;;;;;;5.43;1.70;;;15.00;99.90;;;;;;5051582;28;20040;-67
2024/04/06 02:17:21;;;;;;;6.70;1.90;;;15.00;99.90;;;;;;5051533;28;20053;-66
2024/04/06 02:19:47;;;;;;;8.30;1.70;;;15.00;99.90;;;;;;5051704;28;20044;-61
2024/04/06 02:22:13;;;;;;;4.53;1.70;;;15.00;99.90;;;;;;5054888;28;20064;-61
2024/04/06 02:24:38;;;;;;;5.07;1.73;;;15.10;99.90;;;;;;5056393;28;20123;-61
2024/04/06 02:27:04;;;;;;;6.57;2.08;;;15.10;99.90;;;;;;5039430;28;20033;-61
2024/04/06 02:29:31;;;;;;;5.97;2.10;;;15.10;99.90;;;;;;5055714;28;20044;-61
2024/04/06 02:32:00;;;;;;;5.63;1.77;;;15.00;99.90;;;;;;5055924;28;20481;-61
2024/04/06 02:34:26;;;;;;;6.72;1.98;;;15.00;99.90;;;;;;5055920;28;20053;-61
2024/04/06 02:36:52;;;;;;;3.97;1.60;;;15.00;99.90;;;;;;5055418;28;20047;-61
2024/04/06 02:39:18;;;;;;;6.72;1.90;;;15.00;99.90;;;;;;5055552;28;20387;-61
2024/04/06 02:41:44;;;;;;;7.22;1.92;;;14.90;99.90;;;;;;5055834;28;20055;-63
2024/04/06 02:44:10;;;;;;;5.35;2.13;;;14.90;99.90;;;;;;5055151;28;20490;-61
2024/04/06 02:46:35;;;;;;;5.05;2.08;;;14.90;99.90;;;;;;5055342;28;20056;-61
2024/04/06 02:49:01;;;;;;;6.68;1.98;;;14.80;99.90;;;;;;5039370;28;20097;-61
2024/04/06 02:51:27;;;;;;;7.00;2.13;;;14.80;99.90;;;;;;5055153;28;20457;-61
2024/04/06 02:53:53;;;;;;;8.00;2.40;;;14.80;99.90;;;;;;5055681;28;20087;-61
2024/04/06 02:56:19;;;;;;;5.00;1.75;;;14.80;99.90;;;;;;5038281;28;20481;-62
2024/04/06 02:58:45;;;;;;;5.38;1.77;;;14.80;99.90;;;;;;5054794;28;20041;-61
2024/04/06 03:01:11;;;;;;;7.80;2.10;;;14.80;99.90;;;;;;5054963;28;20363;-61
2024/04/06 03:03:37;;;;;;;6.53;1.90;;;14.80;99.90;;;;;;5054896;28;20095;-61
2024/04/06 03:06:02;;;;;;;5.93;1.80;;;14.70;99.90;;;;;;5055121;28;20060;-62
2024/04/06 03:08:28;;;;;;;10.13;2.10;;;14.70;99.90;;;;;;5055165;28;20457;-63
2024/04/06 03:10:54;;;;;;;6.00;1.83;;;14.70;99.90;;;;;;5055018;28;20359;-63
2024/04/06 03:13:20;;;;;;;6.43;1.98;;;14.70;99.90;;;;;;5054925;28;20508;-63
2024/04/06 03:15:46;;;;;;;6.57;1.75;;;14.70;99.90;;;;;;5037867;28;20048;-63
2024/04/06 03:18:14;;;;;;;8.38;1.98;;;14.60;99.90;;;;;;5054340;28;20055;-69
2024/04/06 03:20:40;;;;;;;7.32;1.92;;;14.60;99.90;;;;;;5054521;28;20037;-70
2024/04/06 03:23:06;;;;;;;5.65;1.63;;;14.60;99.90;;;;;;5054867;28;20045;-70
2024/04/06 03:25:32;;;;;;;5.20;2.05;;;14.60;99.90;;;;;;5055137;28;20033;-70
2024/04/06 03:27:58;;;;;;;8.02;1.85;;;14.70;99.90;;;;;;5054843;28;20120;-69
2024/04/06 03:30:25;;;;;;;8.18;2.38;;;14.60;99.90;;;;;;5038181;28;20128;-69
2024/04/06 03:32:51;;;;;;;8.70;2.58;;;14.60;99.90;;;;;;5054593;28;20481;-70
2024/04/06 03:35:17;;;;;;;6.45;2.00;;;14.60;99.90;;;;;;5055055;28;20037;-70
2024/04/06 03:37:43;;;;;;;6.15;2.10;;;14.60;99.90;;;;;;5054926;28;20441;-69
2024/04/06 03:40:09;;;;;;;7.25;2.45;;;14.60;99.90;;;;;;5054757;28;20047;-70
2024/04/06 03:42:38;;;;;;;6.57;2.45;;;14.70;99.90;;;;;;5054591;28;20037;-69
2024/04/06 03:45:04;;;;;;;5.53;1.77;;;14.60;99.90;;;;;;5054527;28;20413;-61
2024/04/06 03:47:30;;;;;;;5.88;2.10;;;14.60;99.90;;;;;;5054115;28;20045;-61
2024/04/06 03:49:55;;;;;;;6.18;1.73;;;14.60;99.90;;;;;;5037778;28;20075;-70
2024/04/06 03:52:21;;;;;;;4.75;1.85;;;14.50;99.90;;;;;;5054149;28;20053;-70
2024/04/06 03:54:47;;;;;;;5.97;2.03;;;14.50;99.90;;;;;;5054594;28;20037;-69
2024/04/06 03:57:13;;;;;;;7.40;2.20;;;14.50;99.90;;;;;;5054395;28;20049;-69
2024/04/06 03:59:39;;;;;;;6.75;2.00;;;14.50;99.90;;;;;;5054479;28;20095;-70
2024/04/06 04:02:05;;;;;;;5.05;2.15;;;14.50;99.90;;;;;;5054329;28;20044;-70
2024/04/06 04:04:31;;;;;;;5.88;2.20;;;14.50;99.90;;;;;;5054125;28;20083;-70
2024/04/06 04:06:56;;;;;;;6.65;2.05;;;14.40;99.90;;;;;;5053671;28;20044;-70
2024/04/06 04:09:22;;;;;;;9.35;2.22;;;14.40;99.90;;;;;;5053819;28;20037;-70
2024/04/06 04:11:48;;;;;;;8.73;2.55;;;14.40;99.90;;;;;;5053732;28;20041;-67
2024/04/06 04:14:14;;;;;;;4.47;1.90;;;14.30;99.90;;;;;;5053887;28;20482;-66
2024/04/06 04:16:40;;;;;;;7.53;2.25;;;14.30;99.90;;;;;;5053402;28;20053;-66
2024/04/06 04:19:06;;;;;;;5.50;2.08;;;14.30;99.90;;;;;;5054436;28;20044;-69
2024/04/06 04:21:31;;;;;;;6.32;2.15;;;14.30;99.90;;;;;;5054050;28;20039;-62
2024/04/06 04:23:57;;;;;;;5.68;2.03;;;14.30;99.90;;;;;;5054444;28;20060;-61
2024/04/06 04:26:23;;;;;;;7.75;2.20;;;14.30;99.90;;;;;;5054065;28;20033;-62
2024/04/06 04:28:49;;;;;;;8.68;2.10;;;14.30;99.90;;;;;;5054203;28;20462;-61
2024/04/06 04:31:15;;;;;;;6.28;1.80;;;14.30;99.90;;;;;;5054346;28;20044;-62
2024/04/06 04:33:41;;;;;;;6.55;2.10;;;14.30;99.90;;;;;;5054315;28;20033;-62
2024/04/06 04:36:07;;;;;;;12.40;2.58;;;14.30;99.90;;;;;;5037590;28;20065;-62
2024/04/06 04:38:33;;;;;;;6.85;1.80;;;14.20;99.90;;;;;;5037380;28;20037;-62
2024/04/06 04:40:59;;;;;;;9.82;2.08;;;14.20;99.90;;;;;;5054225;28;20091;-62
2024/04/06 04:43:24;;;;;;;9.23;2.25;;;14.20;99.90;;;;;;5053992;28;20379;-62
2024/04/06 04:45:50;;;;;;;5.32;2.10;;;14.20;99.90;;;;;;5052282;28;20044;-62
2024/04/06 04:48:16;;;;;;;6.55;1.83;;;14.20;99.90;;;;;;5053535;28;20148;-61
2024/04/06 04:50:42;;;;;;;5.40;2.08;;;14.10;99.90;;;;;;5037197;28;20107;-66
2024/04/06 04:53:09;;;;;;;6.60;2.10;;;14.10;99.90;;;;;;5053916;28;20029;-68
2024/04/06 04:55:35;;;;;;;5.00;1.80;;;14.10;99.90;;;;;;5053862;28;20052;-68
2024/04/06 04:58:00;;;;;;;6.97;2.00;;;14.20;99.90;;;;;;5053304;28;20131;-66
2024/04/06 05:00:26;;;;;;;10.13;2.20;;;14.10;99.90;;;;;;5053137;28;20555;-67
2024/04/06 05:02:52;;;;;;;6.00;2.17;;;14.10;99.90;;;;;;5053418;28;20044;-66
2024/04/06 05:05:18;;;;;;;10.02;2.15;;;14.10;99.90;;;;;;5053564;28;20471;-66
2024/04/06 05:07:44;;;;;;;7.35;2.55;;;14.10;99.90;;;;;;5053443;28;20068;-66
2024/04/06 05:10:10;;;;;;;6.00;1.90;;;14.00;99.90;;;;;;5052901;28;20120;-69
2024/04/06 05:12:36;;;;;;;9.77;2.28;;;14.00;99.90;;;;;;5053034;28;20039;-69
2024/04/06 05:15:02;;;;;;;6.47;2.05;;;14.00;99.90;;;;;;5036448;28;20493;-69
2024/04/06 05:17:27;;;;;;;5.13;2.00;;;14.00;99.90;;;;;;5051970;28;20550;-69
2024/04/06 05:19:53;;;;;;;6.68;2.20;;;14.00;99.90;;;;;;5051904;28;20041;-70
2024/04/06 05:22:19;;;;;;;7.30;1.90;;;14.00;99.90;;;;;;5051948;28;20070;-70
2024/04/06 05:24:45;;;;;;;6.18;2.22;;;14.00;99.90;;;;;;5052683;28;20060;-69
2024/04/06 05:27:11;;;;;;;5.38;1.83;;;14.00;99.90;;;;;;5052248;28;20045;-70
2024/04/06 05:29:37;;;;;;;6.15;1.90;;;14.00;99.90;;;;;;5052900;28;20418;-69
2024/04/06 05:32:03;;;;;;;6.57;2.10;;;14.10;99.90;;;;;;5052807;28;20044;-70
2024/04/06 05:34:28;;;;;;;7.00;2.00;;;14.10;99.90;;;;;;5053092;28;20053;-66
2024/04/06 05:36:54;;;;;;;7.82;2.25;;;14.20;99.90;;;;;;5052587;28;20052;-67
2024/04/06 05:39:21;;;;;;;6.93;2.40;;;14.20;99.90;;;;;;5035955;28;20045;-67
2024/04/06 05:41:46;;;;;;;4.85;1.98;;;14.20;99.90;;;;;;5052789;28;20043;-67
2024/04/06 05:44:12;;;;;;;7.85;2.28;;;14.30;99.90;;;;;;5052001;28;20405;-67
2024/04/06 05:46:38;;;;;;;6.20;2.05;;;14.30;99.90;;;;;;5035966;28;20033;-66
2024/04/06 05:49:05;;;;;;;7.78;2.03;;;14.30;99.90;;;;;;5052522;28;20444;-66
2024/04/06 05:51:31;;;;;;;6.90;2.17;;;14.40;99.90;;;;;;5052902;28;20488;-66
2024/04/06 05:53:57;;;;;;;5.97;2.00;;;14.40;99.90;;;;;;5052602;28;20045;-67
2024/04/06 05:56:23;;;;;;;6.80;1.90;;;14.40;99.90;;;;;;5052114;28;20048;-66
2024/04/06 05:58:48;;;;;;;7.45;2.28;;;14.50;99.90;;;;;;5052563;28;20504;-66
2024/04/06 06:01:14;;;;;;;7.03;1.90;;;14.50;99.90;;;;;;5052442;28;20036;-63
2024/04/06 06:03:40;;;;;;;9.27;2.25;;;14.50;99.90;;;;;;5035638;28;20049;-63
2024/04/06 06:06:06;;;;;;;5.28;1.60;;;14.50;99.90;;;;;;5052698;28;20046;-63
2024/04/06 06:08:32;;;;;;;5.20;1.92;;;14.50;99.90;;;;;;5052382;28;20535;-62
2024/04/06 06:10:58;;;;;;;5.43;1.80;;;14.50;99.90;;;;;;5052337;28;20367;-63
2024/04/06 06:13:23;;;;;;;7.15;2.05;;;14.60;99.90;;;;;;5052133;28;20491;-62
2024/04/06 06:15:49;;;;;;;7.75;2.08;;;14.60;99.90;;;;;;5052598;28;20072;-63
2024/04/06 06:18:15;;;;;;;8.50;2.15;;;14.70;99.90;;;;;;5052291;28;20426;-63
2024/04/06 06:20:42;;;;;;;6.90;2.10;;;14.70;99.90;;;;;;5053854;28;20482;-63
2024/04/06 06:23:08;;;;;;;5.28;1.85;;;14.70;99.90;;;;;;5052371;28;20036;-63
2024/04/06 06:25:34;;;;;;;6.57;1.90;;;14.70;99.90;;;;;;5066699;28;20040;-63
2024/04/06 06:28:00;;;;;;;7.00;1.88;;;14.80;99.90;;;;;;5072238;28;20044;-66
2024/04/06 06:30:26;;;;;;;6.43;2.10;;;14.80;99.90;;;;;;5055192;28;20135;-69
2024/04/06 06:32:52;;;;;;;7.82;2.10;;;14.80;99.90;;;;;;5071890;28;20040;-62
2024/04/06 06:35:18;;;;;;;7.20;2.00;;;14.90;99.90;;;;;;5055398;28;20389;-62
2024/04/06 06:37:44;;;;;;;6.97;2.08;;;14.90;99.90;;;;;;5071672;28;20462;-61
2024/04/06 06:40:09;;;;;;;6.57;1.83;;;14.90;99.90;;;;;;5055704;28;20037;-69
2024/04/06 06:42:35;;;;;;;5.38;1.88;;;15.00;99.90;;;;;;5072062;28;20029;-69
2024/04/06 06:45:05;;;;;;;5.57;2.10;;;15.00;99.90;;;;;;5055762;28;20044;-70
2024/04/06 06:47:31;;;;;;;5.18;1.83;;;15.10;99.90;;;;;;5071824;28;20393;-69
2024/04/06 06:49:56;;;;;;;5.70;2.10;;;15.20;99.90;;;;;;5072145;28;20051;-69
2024/04/06 06:52:22;;;;;;;6.70;1.88;;;15.30;99.90;;;;;;5072333;28;20048;-69
2024/04/06 06:54:48;;;;;;;7.20;1.70;;;15.40;99.90;;;;;;5072176;28;20045;-69
2024/04/06 06:57:14;;;;;;;9.13;2.20;;;15.40;99.90;;;;;;5071828;28;20156;-61
2024/04/06 06:59:40;;;;;;;7.57;2.50;;;15.60;99.90;;;;;;5072122;28;20074;-62
2024/04/06 07:02:06;;;;;;;9.93;2.15;;;15.70;99.90;;;;;;5072154;28;20059;-62
2024/04/06 07:04:31;;;;;;;9.52;2.40;;;15.70;99.90;;;;;;5055477;28;20091;-62
2024/04/06 07:06:57;;;;;;;5.43;2.10;;;15.80;99.90;;;;;;5055383;28;20043;-63
2024/04/06 07:09:23;;;;;;;5.80;1.73;;;15.90;99.90;;;;;;5074645;28;20041;-62
2024/04/06 07:11:49;;;;;;;10.10;2.13;;;15.90;99.90;;;;;;5075703;28;20495;-69
2024/04/06 07:14:15;;;;;;;8.55;1.90;;;16.00;99.90;;;;;;5075785;28;20044;-70
2024/04/06 07:16:41;;;;;;;9.32;2.15;;;16.10;99.90;;;;;;5058289;28;20144;-64
2024/04/06 07:19:07;;;;;;;5.82;1.80;;;16.20;99.90;;;;;;5075769;28;20033;-64
2024/04/06 07:21:32;;;;;;;8.82;2.15;;;16.20;99.90;;;;;;5058485;28;20082;-64
2024/04/06 07:23:58;;;;;;;7.10;2.47;;;16.20;99.90;;;;;;5075073;28;20072;-62
2024/04/06 07:26:24;;;;;;;7.78;2.67;;;16.30;99.90;;;;;;5075102;28;20049;-64
2024/04/06 07:28:50;;;;;;;4.38;1.83;;;16.30;99.90;;;;;;5075287;28;20045;-65
2024/04/06 07:31:16;;;;;;;8.70;2.35;;;16.40;99.90;;;;;;5057847;28;20045;-63
2024/04/06 07:33:42;;;;;;;6.60;2.03;;;16.40;99.90;;;;;;5038585;28;20045;-64
2024/04/06 07:36:08;;;;;;;6.90;2.13;;;16.40;99.90;;;;;;5038011;28;20076;-62
2024/04/06 07:38:34;;;;;;;6.85;1.80;;;16.40;99.90;;;;;;5038175;28;20528;-62
2024/04/06 07:41:00;;;;;;;5.10;1.80;;;16.50;99.90;;;;;;5055149;28;20057;-62
2024/04/06 07:43:26;;;;;;;9.60;2.08;;;16.50;99.90;;;;;;5038316;28;20489;-63
2024/04/06 07:45:52;;;;;;;6.55;2.03;;;16.50;99.90;;;;;;5054943;28;20049;-62
2024/04/06 07:48:17;;;;;;;5.85;2.20;;;16.50;99.90;;;;;;5038016;28;20033;-63
2024/04/06 07:50:43;;;;;;;7.47;2.00;;;16.50;99.90;;;;;;5054734;28;20115;-64
2024/04/06 07:53:09;;;;;;;9.43;2.10;;;16.60;99.90;;;;;;5054660;28;20425;-62
2024/04/06 07:55:35;;;;;;;8.55;2.05;;;16.60;99.90;;;;;;5054857;28;20090;-67
2024/04/06 07:58:01;;;;;;;8.38;2.53;;;16.60;99.90;;;;;;5054531;28;20072;-64
2024/04/06 08:00:27;;;;;;;6.65;2.15;;;16.60;99.90;;;;;;5054663;28;20045;-70
2024/04/06 08:02:52;;;;;;;8.13;2.28;;;16.60;99.90;;;;;;5053501;28;20037;-69
2024/04/06 08:05:18;;;;;;;6.90;2.15;;;16.70;99.90;;;;;;5054780;28;20033;-70
2024/04/06 08:07:44;;;;;;;6.13;1.83;;;16.70;99.90;;;;;;5037608;28;20107;-67
2024/04/06 08:10:10;;;;;;;8.30;2.20;;;16.70;99.90;;;;;;5054373;28;20052;-66
2024/04/06 08:12:36;;;;;;;6.85;1.98;;;16.80;99.90;;;;;;5054367;28;20052;-63
2024/04/06 08:15:02;;;;;;;5.90;1.92;;;16.80;99.90;;;;;;5037862;28;20045;-62
2024/04/06 08:17:28;;;;;;;7.85;1.90;;;16.90;99.90;;;;;;5053808;28;20174;-62
2024/04/06 08:19:54;;;;;;;7.28;1.90;;;17.00;99.90;;;;;;5053737;28;20550;-67
2024/04/06 08:22:20;;;;;;;9.50;2.10;;;17.00;99.90;;;;;;5054535;28;20068;-64
2024/04/06 08:24:45;;;;;;;6.15;2.08;;;17.10;99.90;;;;;;5037220;28;20494;-67
2024/04/06 08:27:11;;;;;;;7.68;2.33;;;17.10;99.90;;;;;;5054100;28;20098;-62
2024/04/06 08:29:37;;;;;;;7.05;2.13;;;17.20;99.90;;;;;;5054326;28;20079;-70
2024/04/06 08:32:03;;;;;;;7.18;1.80;;;17.30;99.90;;;;;;5053741;28;20033;-63
2024/04/06 08:34:29;;;;;;;7.75;2.35;;;17.30;99.90;;;;;;5054394;28;20048;-63
2024/04/06 08:36:55;;;;;;;9.02;2.95;;;17.40;99.90;;;;;;5037373;28;20045;-64
2024/04/06 08:39:23;;;;;;;7.05;2.28;;;17.50;99.90;;;;;;5037239;28;20124;-69
2024/04/06 08:41:49;;;;;;;8.27;2.03;;;17.50;99.90;;;;;;5054273;28;20102;-70
2024/04/06 08:44:16;;;;;;;6.65;1.80;;;17.60;99.90;;;;;;5053916;28;20474;-64
2024/04/06 08:46:41;;;;;;;10.13;1.98;;;17.60;99.90;;;;;;5053589;28;20052;-63
2024/04/06 08:49:08;;;;;;;7.05;2.15;;;17.60;99.90;;;;;;5053928;28;20478;-67
2024/04/06 08:51:34;;;;;;;7.85;2.10;;;17.70;99.90;;;;;;5053943;28;20540;-66
2024/04/06 08:54:00;;;;;;;7.15;2.10;;;17.80;99.90;;;;;;5053735;28;20037;-67
2024/04/06 08:56:26;;;;;;;9.73;2.40;;;17.80;99.90;;;;;;5052995;28;20462;-69
2024/04/06 08:58:51;;;;;;;10.48;1.83;;;17.80;99.90;;;;;;5053529;28;20037;-70
2024/04/06 09:01:17;;;;;;;8.27;1.75;;;17.80;99.90;;;;;;5053136;28;20493;-63
2024/04/06 09:03:43;;;;;;;7.22;2.03;;;17.80;99.90;;;;;;5036401;28;20049;-63
2024/04/06 09:06:09;;;;;;;6.78;2.03;;;17.80;99.90;;;;;;5053166;28;20041;-62
2024/04/06 09:08:35;;;;;;;9.27;2.10;;;17.90;99.90;;;;;;5053377;28;20128;-66
2024/04/06 09:11:06;;;;;;;5.78;1.75;;;17.90;99.90;;;;;;5053580;28;20037;-63
2024/04/06 09:13:32;;;;;;;4.85;1.70;;;17.90;99.90;;;;;;5053549;28;20037;-69
2024/04/06 09:15:57;;;;;;;6.82;2.00;;;17.90;99.90;;;;;;5053524;28;20478;-68
2024/04/06 09:18:23;;;;;;;9.15;2.75;;;17.90;99.90;;;;;;5047797;28;20063;-70
2024/04/06 09:20:49;;;;;;;8.43;2.42;;;17.90;99.90;;;;;;5051168;28;20075;-62
2024/04/06 09:23:15;;;;;;;9.55;1.92;;;18.00;99.90;;;;;;5052129;28;20037;-67
2024/04/06 09:25:40;;;;;;;11.80;2.35;;;18.00;99.90;;;;;;5052473;28;20505;-66
2024/04/06 09:28:06;;;;;;;9.40;2.67;;;18.10;99.90;;;;;;5053017;28;20445;-66
2024/04/06 09:30:32;;;;;;;7.78;2.55;;;18.10;99.90;;;;;;5052130;28;20131;-66
2024/04/06 09:32:58;;;;;;;9.57;2.25;;;18.20;99.90;;;;;;5035047;28;20060;-66
2024/04/06 09:35:24;;;;;;;6.38;1.90;;;18.20;99.90;;;;;;5035243;28;20064;-65
2024/04/06 09:37:50;;;;;;;7.22;2.35;;;18.20;99.90;;;;;;5052172;28;20071;-67
2024/04/06 09:40:18;;;;;;;6.95;2.10;;;18.30;99.90;;;;;;5052079;28;20098;-68
2024/04/06 09:42:44;;;;;;;8.63;2.42;;;18.30;99.90;;;;;;5052033;28;20040;-67
2024/04/06 09:45:10;;;;;;;8.70;2.15;;;18.40;99.90;;;;;;5052000;28;20041;-67
2024/04/06 09:47:36;;;;;;;9.52;2.45;;;18.40;99.90;;;;;;5068577;28;20033;-66
2024/04/06 09:50:02;;;;;;;8.02;2.22;;;18.50;99.90;;;;;;5068688;28;20548;-68
2024/04/06 09:52:28;;;;;;;11.30;2.38;;;18.50;99.90;;;;;;5052156;28;20040;-68
2024/04/06 09:54:54;;;;;;;7.95;1.83;;;18.60;99.90;;;;;;5068703;28;20498;-67
2024/04/06 09:57:20;;;;;;;7.28;2.25;;;18.60;99.90;;;;;;5068785;28;20040;-68
2024/04/06 09:59:45;;;;;;;8.55;2.17;;;18.70;99.90;;;;;;5068642;28;20037;-63
2024/04/06 10:02:11;;;;;;;6.22;2.05;;;18.80;99.90;;;;;;5068541;28;20033;-67
2024/04/06 10:04:37;;;;;;;13.77;2.30;;;18.90;99.90;;;;;;5068452;28;20029;-68
2024/04/06 10:07:03;;;;;;;13.90;2.70;;;18.80;99.90;;;;;;5051287;28;20436;-63
2024/04/06 10:09:30;;;;;;;11.48;2.40;;;18.90;99.90;;;;;;5051912;28;20094;-62
2024/04/06 10:11:56;;;;;;;7.72;1.77;;;18.90;99.90;;;;;;5052467;28;20080;-62
2024/04/06 10:14:22;;;;;;;12.50;2.35;;;18.90;99.90;;;;;;5052587;28;20044;-62
2024/04/06 10:16:48;;;;;;;7.80;2.10;;;19.00;99.90;;;;;;5052401;28;20575;-62
2024/04/06 10:19:14;;;;;;;9.38;2.67;;;19.00;99.90;;;;;;5052191;28;20033;-62
2024/04/06 10:21:40;;;;;;;7.78;2.42;;;19.00;99.90;;;;;;5052237;28;20494;-62
2024/04/06 10:24:06;;;;;;;10.13;2.35;;;18.90;99.90;;;;;;5051959;28;20401;-67
2024/04/06 10:26:31;;;;;;;9.82;2.88;;;18.90;99.90;;;;;;5051906;28;20098;-66
2024/04/06 10:28:57;;;;;;;8.48;2.80;;;19.00;99.90;;;;;;5051242;28;20044;-67
2024/04/06 10:31:23;;;;;;;8.20;2.22;;;18.90;99.90;;;;;;5050392;28;20063;-66
2024/04/06 10:33:49;;;;;;;8.73;2.40;;;19.00;99.90;;;;;;5050916;28;20036;-67
2024/04/06 10:36:15;;;;;;;7.80;2.50;;;19.00;99.90;;;;;;5051758;28;20506;-61
2024/04/06 10:38:41;;;;;;;7.78;2.45;;;19.00;99.90;;;;;;5051730;28;20077;-64
2024/04/06 10:41:07;;;;;;;13.27;2.60;;;19.10;99.90;;;;;;5051664;28;20381;-60
2024/04/06 10:43:33;;;;;;;8.82;2.30;;;19.20;99.90;;;;;;5053308;28;20037;-60
2024/04/06 10:45:59;;;;;;;9.07;2.67;;;19.20;99.90;;;;;;5055877;28;20040;-61
2024/04/06 10:48:24;;;;;;;9.10;2.53;;;19.40;99.90;;;;;;5056385;28;20044;-67
2024/04/06 10:50:51;;;;;;;10.95;2.88;;;19.40;99.90;;;;;;5055823;28;20047;-67
2024/04/06 10:53:17;;;;;;;8.52;2.75;;;19.60;99.90;;;;;;5056052;28;20451;-62
2024/04/06 10:55:45;;;;;;;8.25;2.80;;;19.70;99.90;;;;;;5056313;28;20064;-60
2024/04/06 10:58:11;;;;;;;10.73;2.70;;;19.70;99.90;;;;;;5055705;28;20485;-60
2024/04/06 11:00:37;;;;;;;10.88;2.85;;;19.80;99.90;;;;;;5056060;28;20451;-60
2024/04/06 11:03:03;;;;;;;13.35;2.85;;;19.70;99.90;;;;;;5055825;28;20041;-65
2024/04/06 11:05:28;;;;;;;11.77;2.72;;;19.70;99.90;;;;;;5055799;28;20033;-64
2024/04/06 11:07:54;;;;;;;7.55;2.28;;;19.70;99.90;;;;;;5055394;28;20041;-65
2024/04/06 11:10:23;;;;;;;12.23;2.97;;;19.70;99.90;;;;;;5055912;28;20041;-64
2024/04/06 11:12:48;;;;;;;8.63;2.70;;;19.70;99.90;;;;;;5055279;28;20045;-62
2024/04/06 11:15:14;;;;;;;11.20;2.97;;;19.60;99.90;;;;;;5055369;28;20549;-62
2024/04/06 11:17:40;;;;;;;10.23;2.78;;;19.40;99.90;;;;;;5038428;28;20136;-61
2024/04/06 11:20:06;;;;;;;12.95;2.70;;;19.40;99.90;;;;;;5055223;28;20437;-61
2024/04/06 11:22:32;;;;;;;9.60;3.00;;;19.40;99.90;;;;;;5055570;28;20611;-61
2024/04/06 11:24:57;;;;;;;11.75;3.10;;;19.30;99.90;;;;;;5055624;28;20049;-62
2024/04/06 11:27:23;;;;;;;11.88;2.78;;;19.40;99.90;;;;;;5071790;28;20037;-61
2024/04/06 11:29:49;;;;;;;9.80;2.92;;;19.40;99.90;;;;;;5055020;28;20052;-62
2024/04/06 11:32:19;;;;;;;12.15;2.78;;;19.30;99.90;;;;;;5055180;28;20041;-66
2024/04/06 11:34:44;;;;;;;9.45;3.10;;;19.30;99.90;;;;;;5055394;28;20043;-60
2024/04/06 11:37:10;;;;;;;11.05;2.70;;;19.20;99.90;;;;;;5055190;28;20041;-65
2024/04/06 11:39:36;;;;;;;13.50;3.13;;;19.10;99.90;;;;;;5055375;28;20037;-64
2024/04/06 11:42:02;;;;;;;11.68;2.90;;;19.10;99.90;;;;;;5055374;28;20525;-65
2024/04/06 11:44:27;;;;;;;13.38;2.95;;;19.10;99.90;;;;;;5054835;28;20154;-65
2024/04/06 11:46:53;;;;;;;11.77;2.88;;;19.10;99.90;;;;;;5055152;28;20037;-68
2024/04/06 11:49:19;;;;;;;10.75;3.20;;;19.10;99.90;;;;;;5054934;28;20513;-68
2024/04/06 11:51:45;;;;;;;13.10;3.10;;;19.20;99.90;;;;;;5055205;28;20486;-68
2024/04/06 11:54:11;;;;;;;11.32;3.17;;;19.20;99.90;;;;;;5053917;28;20047;-68
2024/04/06 11:56:37;;;;;;;11.65;2.92;;;19.40;99.90;;;;;;5054411;28;20045;-68
2024/04/06 11:59:02;;;;;;;12.48;3.50;;;19.50;99.90;;;;;;5036307;28;20092;-69
2024/04/06 12:01:28;;;;;;;14.73;3.35;;;19.60;99.90;;;;;;5053998;28;20079;-68
2024/04/06 12:03:54;;;;;;;11.35;3.67;;;19.70;99.90;;;;;;5054840;28;20132;-61
2024/04/06 12:06:23;;;;;;;11.27;3.70;;;19.60;99.90;;;;;;5054256;28;20048;-61
2024/04/06 12:08:49;;;;;;;13.18;3.30;;;19.60;99.90;;;;;;5054912;28;20041;-61
2024/04/06 12:11:15;;;;;;;12.35;3.20;;;19.50;99.90;;;;;;5054827;28;20041;-62
2024/04/06 12:13:41;;;;;;;13.10;3.58;;;19.50;99.90;;;;;;5054452;28;20112;-62
2024/04/06 12:16:06;;;;;;;16.27;3.53;;;19.60;99.90;;;;;;5054363;28;20175;-62
2024/04/06 12:18:32;;;;;;;11.30;2.80;;;19.60;99.90;;;;;;5037500;28;20422;-62
2024/04/06 12:20:58;;;;;;;12.40;3.22;;;19.60;99.90;;;;;;5054200;28;20120;-62
2024/04/06 12:23:24;;;;;;;10.82;3.25;;;19.70;99.90;;;;;;5054518;28;20083;-62
2024/04/06 12:25:50;;;;;;;13.77;3.20;;;19.70;99.90;;;;;;5054324;28;20425;-64
2024/04/06 12:28:15;;;;;;;12.35;2.83;;;19.70;99.90;;;;;;5071177;28;20061;-67
2024/04/06 12:30:41;;;;;;;10.10;2.50;;;19.70;99.90;;;;;;5037381;28;20488;-68
2024/04/06 12:33:07;;;;;;;11.00;3.40;;;19.80;99.90;;;;;;5054039;28;20041;-65
2024/04/06 12:35:33;;;;;;;10.77;2.78;;;19.80;99.90;;;;;;5054061;28;20041;-63
2024/04/06 12:37:59;;;;;;;12.73;2.95;;;19.80;99.90;;;;;;5054280;28;20040;-63